Time;durP1;ratioP1;P1;durP2;ratioP2;P2;SDS_P1;SDS_P2;PMS_P1;PMS_P2;Temp;Humidity;BMP_temperature;BMP_pressure;BME280_temperature;BME280_humidity;BME280_pressure;Samples;Min_cycle;Max_cycle;Signal;HPM_P1;HPM_P2
2024/03/14 00:01:45;;;;;;;8.60;5.88;;;;;;;9.87;76.94;98970.03;4924182;29;20041;-92
2024/03/14 00:04:12;;;;;;;9.38;6.10;;;;;;;9.88;77.86;98958.22;4941256;29;20031;-91
2024/03/14 00:06:38;;;;;;;9.45;6.20;;;;;;;10.01;77.52;98971.06;4924852;29;20059;-93
2024/03/14 00:09:03;;;;;;;9.73;6.30;;;;;;;10.02;77.70;98961.94;4940768;29;20031;-91
2024/03/14 00:11:32;;;;;;;7.85;5.85;;;;;;;10.02;77.16;98978.09;4924666;29;20474;-91
2024/03/14 00:13:58;;;;;;;7.28;5.72;;;;;;;9.85;76.29;98954.19;4924841;29;20039;-91
2024/03/14 00:16:23;;;;;;;8.30;5.32;;;;;;;9.98;76.88;98971.66;4941273;29;20027;-91
2024/03/14 00:18:49;;;;;;;9.20;5.68;;;;;;;10.06;76.35;98978.31;4924676;29;20046;-93
2024/03/14 00:21:16;;;;;;;7.53;5.20;;;;;;;9.89;75.99;98949.88;4923813;29;20067;-91
2024/03/14 00:23:41;;;;;;;8.85;5.72;;;;;;;9.90;76.28;98943.41;4940877;29;20482;-92
2024/03/14 00:26:08;;;;;;;8.07;5.57;;;;;;;10.03;76.87;98957.38;4940405;29;20034;-92
2024/03/14 00:28:39;;;;;;;9.77;5.95;;;;;;;9.99;77.55;98945.53;4934062;29;20024;-92
2024/03/14 00:31:04;;;;;;;7.90;5.65;;;;;;;10.02;77.09;98948.50;4904401;29;20024;-92
2024/03/14 00:33:33;;;;;;;7.38;5.38;;;;;;;10.06;77.20;98954.09;4923672;29;20047;-91
2024/03/14 00:35:59;;;;;;;7.70;5.40;;;;;;;9.87;76.87;98935.88;4958163;28;20023;-91
2024/03/14 00:38:25;;;;;;;9.68;5.55;;;;;;;9.87;76.49;98935.88;4906762;29;20020;-92
2024/03/14 00:40:51;;;;;;;10.85;5.70;;;;;;;9.93;77.04;98941.25;4874695;29;20032;-92
2024/03/14 00:43:17;;;;;;;10.60;6.13;;;;;;;9.78;77.07;98926.00;4874714;29;20479;-93
2024/03/14 00:45:42;;;;;;;8.68;6.10;;;;;;;9.87;77.52;98935.88;4874310;29;20031;-91
2024/03/14 00:48:08;;;;;;;10.02;5.93;;;;;;;9.98;78.30;98941.22;4874985;29;20032;-92
2024/03/14 00:50:35;;;;;;;11.07;6.32;;;;;;;9.81;77.90;98912.78;4891227;29;20170;-92
2024/03/14 00:53:04;;;;;;;9.85;6.25;;;;;;;9.90;78.10;98934.56;4889709;29;20024;-92
2024/03/14 00:55:32;;;;;;;7.60;5.65;;;;;;;9.98;77.96;98947.44;4894289;29;20126;-92
2024/03/14 00:57:57;;;;;;;9.40;5.82;;;;;;;9.80;77.64;98924.63;4906183;29;20101;-92
2024/03/14 01:00:23;;;;;;;10.35;5.32;;;;;;;9.86;78.90;98949.63;4887217;29;20031;-92
2024/03/14 01:02:53;;;;;;;7.85;6.07;;;;;;;9.73;79.15;98918.72;4892881;29;20020;-92
2024/03/14 01:05:20;;;;;;;8.20;5.82;;;;;;;9.76;79.27;98926.25;4908652;29;20095;-93
2024/03/14 01:07:46;;;;;;;7.70;6.07;;;;;;;9.96;78.88;98952.28;4909276;29;20466;-92
2024/03/14 01:10:13;;;;;;;8.85;5.57;;;;;;;9.91;78.18;98942.31;4924875;29;20059;-92
2024/03/14 01:12:39;;;;;;;8.13;5.68;;;;;;;9.89;78.61;98933.72;4908429;29;20027;-93
2024/03/14 01:15:07;;;;;;;6.78;5.10;;;;;;;10.08;78.02;98949.25;4908528;29;20038;-92
2024/03/14 01:17:33;;;;;;;8.80;5.57;;;;;;;9.89;78.29;98924.88;4924728;29;20032;-92
2024/03/14 01:19:59;;;;;;;7.53;5.50;;;;;;;9.84;78.31;98912.25;4923247;29;20055;-92
2024/03/14 01:22:25;;;;;;;7.80;5.38;;;;;;;9.87;78.86;98919.75;4908880;29;20044;-92
2024/03/14 01:24:50;;;;;;;7.90;5.75;;;;;;;9.91;78.93;98922.69;4907760;29;20462;-91
2024/03/14 01:27:18;;;;;;;7.90;5.47;;;;;;;9.89;78.88;98933.72;4892559;29;20490;-91
2024/03/14 01:29:45;;;;;;;7.18;5.25;;;;;;;9.83;78.19;98917.91;4892618;29;20055;-92
2024/03/14 01:32:11;;;;;;;7.57;5.22;;;;;;;9.85;78.33;98910.34;4907943;29;20122;-92
2024/03/14 01:34:38;;;;;;;9.32;6.20;;;;;;;9.90;77.93;98916.53;4908341;29;20063;-92
2024/03/14 01:37:06;;;;;;;8.05;5.45;;;;;;;9.93;77.70;98920.53;4892421;29;20048;-92
2024/03/14 01:39:34;;;;;;;9.18;5.68;;;;;;;9.84;78.90;98914.94;4907360;29;20039;-93
2024/03/14 01:42:00;;;;;;;7.75;5.18;;;;;;;9.94;78.62;98921.34;4903497;29;20468;-93
2024/03/14 01:44:47;;;;;;;7.22;5.07;;;;;;;9.84;78.19;98906.88;4881840;29;20085;-92
2024/03/14 01:47:14;;;;;;;7.30;5.15;;;;;;;9.95;78.16;98921.06;4942781;28;20035;-91
2024/03/14 01:49:41;;;;;;;7.45;4.80;;;;;;;9.84;77.69;98901.50;4910833;29;20027;-93
2024/03/14 01:52:07;;;;;;;7.32;4.97;;;;;;;9.85;77.57;98908.47;4911476;29;20114;-92
2024/03/14 01:54:34;;;;;;;8.50;4.80;;;;;;;10.09;77.71;98940.13;4926241;29;20023;-93
2024/03/14 01:57:00;;;;;;;7.45;5.13;;;;;;;10.02;77.58;98931.53;4928187;29;20101;-93
2024/03/14 01:59:32;;;;;;;7.22;4.75;;;;;;;9.99;78.00;98918.66;4910709;29;20082;-92
2024/03/14 02:01:57;;;;;;;7.45;4.35;;;;;;;9.95;77.73;98918.38;4903746;29;20070;-93
2024/03/14 02:04:31;;;;;;;6.93;4.72;;;;;;;9.96;78.09;98911.13;4909924;29;20039;-93
2024/03/14 02:07:08;;;;;;;6.13;4.30;;;;;;;9.95;77.60;98915.69;4915894;29;20036;-93
2024/03/14 02:09:35;;;;;;;6.88;4.50;;;;;;;9.86;77.68;98912.78;4920815;29;20047;-93
2024/03/14 02:12:02;;;;;;;9.13;4.80;;;;;;;9.86;77.65;98911.97;4926448;29;20053;-93
2024/03/14 02:14:30;;;;;;;6.22;4.15;;;;;;;9.77;78.14;98909.03;4927598;29;20042;-93
2024/03/14 02:16:59;;;;;;;6.30;4.57;;;;;;;9.68;78.20;98902.63;4927362;29;20107;-93
2024/03/14 02:19:25;;;;;;;6.32;4.30;;;;;;;9.63;78.32;98908.84;4927034;29;20022;-92
2024/03/14 02:21:50;;;;;;;7.03;4.45;;;;;;;9.63;78.15;98903.44;4925933;29;20062;-92
2024/03/14 02:24:19;;;;;;;5.85;3.88;;;;;;;9.64;78.71;98912.31;4926369;29;20042;-93
2024/03/14 02:26:44;;;;;;;5.78;4.28;;;;;;;9.76;78.89;98923.56;4926418;29;20057;-93
2024/03/14 02:29:10;;;;;;;5.00;3.75;;;;;;;9.68;78.34;98919.56;4908693;29;20032;-92
2024/03/14 02:31:38;;;;;;;6.72;4.32;;;;;;;9.65;78.67;98916.59;4908759;29;20035;-93
2024/03/14 02:34:04;;;;;;;6.38;4.47;;;;;;;9.59;79.15;98910.44;4891285;29;20040;-92
2024/03/14 02:36:33;;;;;;;4.80;3.72;;;;;;;9.35;79.52;98906.75;4909792;29;20027;-92
2024/03/14 02:38:59;;;;;;;6.78;4.05;;;;;;;9.39;79.69;98902.44;4925830;29;20027;-92
2024/03/14 02:41:30;;;;;;;5.75;4.00;;;;;;;9.50;79.77;98920.13;4926191;29;20464;-92
2024/03/14 02:43:58;;;;;;;5.53;3.50;;;;;;;9.38;80.09;98908.88;4908129;29;20035;-93
2024/03/14 02:46:27;;;;;;;5.50;4.05;;;;;;;9.41;80.03;98898.41;4910431;29;20031;-93
2024/03/14 02:48:53;;;;;;;5.63;3.55;;;;;;;9.34;80.30;98897.06;4910114;29;20058;-93
2024/03/14 02:51:19;;;;;;;6.38;4.07;;;;;;;9.41;80.30;98903.78;4910583;29;20042;-91
2024/03/14 02:53:46;;;;;;;4.65;3.80;;;;;;;9.53;81.02;98916.13;4909353;29;20027;-92
2024/03/14 02:56:11;;;;;;;6.53;4.35;;;;;;;9.44;80.49;98905.09;4910636;29;20034;-92
2024/03/14 02:58:37;;;;;;;5.32;3.75;;;;;;;9.45;80.33;98907.53;4909704;28;20026;-92
2024/03/14 03:01:08;;;;;;;7.38;4.43;;;;;;;9.51;80.72;98919.88;4909847;29;20053;-91
2024/03/14 03:03:36;;;;;;;6.03;4.13;;;;;;;9.56;80.64;98918.25;4910401;29;20066;-92
2024/03/14 03:06:05;;;;;;;6.68;4.13;;;;;;;9.53;80.48;98905.38;4910556;29;20286;-92
2024/03/14 03:08:31;;;;;;;6.55;3.92;;;;;;;9.60;80.31;98917.44;4909942;29;20019;-92
2024/03/14 03:10:57;;;;;;;6.32;4.50;;;;;;;9.59;80.38;98909.66;4925601;29;20027;-92
2024/03/14 03:13:22;;;;;;;6.72;4.20;;;;;;;9.68;80.19;98921.44;4909929;29;20019;-94
2024/03/14 03:15:48;;;;;;;7.63;4.22;;;;;;;9.61;80.18;98915.56;4909507;29;20047;-92
2024/03/14 03:18:13;;;;;;;6.03;4.10;;;;;;;9.48;80.81;98901.63;4925976;29;20033;-92
2024/03/14 03:20:42;;;;;;;6.40;4.43;;;;;;;9.65;80.49;98925.50;4910436;29;20030;-92
2024/03/14 03:23:09;;;;;;;5.05;3.85;;;;;;;9.58;79.91;98919.56;4913720;29;20525;-92
2024/03/14 03:25:35;;;;;;;5.13;4.03;;;;;;;9.56;79.53;98912.88;4928879;29;20042;-92
2024/03/14 03:28:02;;;;;;;5.93;3.92;;;;;;;9.51;79.72;98922.56;4899463;29;20036;-92
2024/03/14 03:30:28;;;;;;;5.57;4.03;;;;;;;9.51;79.37;98914.50;4899083;29;20046;-93
2024/03/14 03:32:54;;;;;;;4.72;3.80;;;;;;;9.62;79.16;98915.28;4915238;29;20028;-92
2024/03/14 03:35:22;;;;;;;5.88;3.95;;;;;;;9.51;79.29;98898.38;4917241;29;20118;-93
2024/03/14 03:37:48;;;;;;;5.72;3.85;;;;;;;9.57;79.45;98909.13;4914811;29;20127;-92
2024/03/14 03:40:14;;;;;;;5.82;4.32;;;;;;;9.62;79.64;98909.09;4905962;29;20035;-93
2024/03/14 03:42:45;;;;;;;5.88;4.07;;;;;;;9.58;79.36;98900.75;4905083;29;20031;-93
2024/03/14 03:45:14;;;;;;;5.57;3.70;;;;;;;9.84;78.61;98941.03;4917694;29;20046;-93
2024/03/14 03:47:43;;;;;;;5.78;3.72;;;;;;;9.71;78.86;98919.03;4924429;29;20486;-92
2024/03/14 03:50:08;;;;;;;5.10;4.05;;;;;;;9.66;78.78;98908.25;4914122;29;20470;-93
2024/03/14 03:52:39;;;;;;;6.40;4.22;;;;;;;9.73;78.01;98918.72;4906017;29;20028;-92
2024/03/14 03:55:05;;;;;;;5.75;3.90;;;;;;;9.65;78.35;98908.53;4891157;29;20397;-93
2024/03/14 03:57:32;;;;;;;7.40;3.80;;;;;;;9.82;78.58;98938.59;4906326;29;20011;-93
2024/03/14 03:59:57;;;;;;;5.30;3.78;;;;;;;9.77;78.12;98933.22;4889946;29;20039;-93
2024/03/14 04:02:25;;;;;;;4.72;3.70;;;;;;;9.78;78.00;98940.22;4905319;29;20023;-92
2024/03/14 04:04:57;;;;;;;6.15;3.88;;;;;;;9.81;78.00;98942.34;4902557;29;20078;-93
2024/03/14 04:07:26;;;;;;;5.85;4.20;;;;;;;9.82;77.78;98932.44;4919257;29;20035;-93
2024/03/14 04:09:52;;;;;;;5.00;3.80;;;;;;;9.70;78.17;98920.09;4910697;29;20023;-93
2024/03/14 04:12:18;;;;;;;6.45;4.15;;;;;;;9.72;78.60;98922.50;4944232;29;20020;-91
2024/03/14 04:14:43;;;;;;;5.80;4.15;;;;;;;9.72;79.22;98930.56;4936775;29;20047;-92
2024/03/14 04:17:12;;;;;;;5.50;4.15;;;;;;;9.76;79.32;98936.22;4926136;29;20035;-92
2024/03/14 04:19:39;;;;;;;5.82;4.35;;;;;;;9.60;79.45;98914.75;4911426;29;20129;-93
2024/03/14 04:22:05;;;;;;;4.65;3.70;;;;;;;9.80;79.91;98935.38;4904717;29;20494;-93
2024/03/14 04:24:32;;;;;;;6.32;4.30;;;;;;;9.72;79.32;98919.81;4922671;29;20035;-94
2024/03/14 04:27:05;;;;;;;5.30;3.83;;;;;;;9.77;78.41;98933.22;4946447;29;20412;-95
2024/03/14 04:29:30;;;;;;;8.18;4.18;;;;;;;9.84;78.49;98938.34;4931576;29;20027;-95
2024/03/14 04:32:04;;;;;;;6.38;4.70;;;;;;;9.82;78.85;98943.97;4930277;29;20123;-96
2024/03/14 04:34:30;;;;;;;6.88;4.43;;;;;;;9.81;78.15;98945.03;4930777;29;20043;-95
2024/03/14 04:36:56;;;;;;;5.57;4.05;;;;;;;9.76;78.18;98941.59;4928643;29;20512;-95
2024/03/14 04:39:23;;;;;;;5.72;4.07;;;;;;;9.58;78.62;98941.09;4930430;29;20027;-95
2024/03/14 04:41:52;;;;;;;6.45;4.47;;;;;;;9.52;78.80;98928.72;4921131;29;20028;-93
2024/03/14 04:44:18;;;;;;;6.40;4.50;;;;;;;9.73;79.87;98953.69;4902107;29;20093;-92
2024/03/14 04:46:44;;;;;;;6.53;4.38;;;;;;;9.73;79.96;98952.88;4920450;29;20106;-93
2024/03/14 04:49:10;;;;;;;6.65;4.40;;;;;;;9.70;79.61;98930.84;4894737;29;20059;-92
2024/03/14 04:51:36;;;;;;;6.05;4.50;;;;;;;9.70;79.44;98938.91;4928842;29;20482;-93
2024/03/14 04:54:11;;;;;;;7.38;4.32;;;;;;;9.74;79.66;98941.84;4928672;29;20035;-92
2024/03/14 04:56:39;;;;;;;5.70;4.43;;;;;;;9.79;79.49;98943.72;4917049;29;20079;-93
2024/03/14 04:59:08;;;;;;;7.30;5.18;;;;;;;9.84;79.32;98941.03;4907457;29;20094;-91
2024/03/14 05:01:35;;;;;;;5.97;4.28;;;;;;;10.02;79.34;98969.19;4903153;29;20122;-92
2024/03/14 05:04:03;;;;;;;5.03;3.85;;;;;;;9.90;79.04;98956.88;4943353;29;20035;-93
2024/03/14 05:06:29;;;;;;;7.75;5.13;;;;;;;10.05;79.49;98979.41;4929332;29;20035;-92
2024/03/14 05:08:54;;;;;;;7.20;4.70;;;;;;;9.98;79.23;98963.56;4918862;29;20027;-95
2024/03/14 05:11:21;;;;;;;5.50;4.50;;;;;;;10.08;78.39;98984.22;4909902;29;20035;-91
2024/03/14 05:13:56;;;;;;;6.07;4.03;;;;;;;9.84;77.78;98943.72;4904653;29;20504;-92
2024/03/14 05:16:22;;;;;;;4.78;3.65;;;;;;;9.89;77.96;98966.00;4897905;29;20099;-96
2024/03/14 05:18:48;;;;;;;6.07;4.30;;;;;;;9.88;78.09;98955.53;4924359;29;20031;-93
2024/03/14 05:21:15;;;;;;;5.65;4.10;;;;;;;9.80;78.14;98946.16;4945724;29;20039;-92
2024/03/14 05:23:43;;;;;;;7.18;5.10;;;;;;;10.08;78.08;98982.34;4913497;29;20020;-93
2024/03/14 05:26:10;;;;;;;7.50;4.53;;;;;;;10.10;77.99;98979.38;4912065;29;20031;-95
2024/03/14 05:28:36;;;;;;;8.27;5.95;;;;;;;10.09;78.71;98967.81;4912115;29;20601;-95
2024/03/14 05:31:01;;;;;;;8.20;5.15;;;;;;;10.04;78.48;98961.66;4920069;29;20055;-95
2024/03/14 05:33:27;;;;;;;10.93;6.60;;;;;;;10.06;79.29;98970.25;4944996;29;20019;-95
2024/03/14 05:35:53;;;;;;;11.52;7.60;;;;;;;10.09;79.17;98975.88;4946178;29;20054;-93
2024/03/14 05:38:18;;;;;;;12.75;6.38;;;;;;;10.15;79.40;98984.75;4930431;29;20011;-96
2024/03/14 05:40:45;;;;;;;8.77;5.35;;;;;;;10.25;78.65;98984.72;4932689;29;20035;-95
2024/03/14 05:43:11;;;;;;;10.15;5.88;;;;;;;10.22;78.35;98973.69;4932626;29;20085;-95
2024/03/14 05:45:40;;;;;;;9.50;5.57;;;;;;;10.42;77.74;98997.06;4948552;29;20051;-95
2024/03/14 05:48:11;;;;;;;9.45;5.80;;;;;;;10.45;78.29;98999.19;4932852;29;20023;-95
2024/03/14 05:50:42;;;;;;;8.03;5.57;;;;;;;10.45;78.14;98991.09;4931975;29;20482;-95
2024/03/14 05:53:10;;;;;;;9.82;5.35;;;;;;;10.39;78.17;98976.84;4930939;29;20275;-94
2024/03/14 05:55:36;;;;;;;9.90;5.43;;;;;;;10.44;78.15;98989.50;4929039;29;20031;-95
2024/03/14 05:58:04;;;;;;;7.88;4.70;;;;;;;10.61;78.07;99019.56;4929559;29;20098;-93
2024/03/14 06:00:30;;;;;;;12.30;6.18;;;;;;;10.48;77.53;98995.94;4930584;29;20035;-94
2024/03/14 06:02:56;;;;;;;8.18;5.63;;;;;;;10.52;77.13;98986.22;4929709;29;20059;-92
2024/03/14 06:05:21;;;;;;;8.77;5.35;;;;;;;10.58;77.02;99005.84;4930048;29;20063;-95
2024/03/14 06:07:48;;;;;;;8.80;5.35;;;;;;;10.65;76.94;99001.78;4928814;29;20482;-93
2024/03/14 06:10:16;;;;;;;8.65;5.30;;;;;;;10.71;76.51;99002.56;4944323;29;20035;-93
2024/03/14 06:12:45;;;;;;;5.72;4.47;;;;;;;10.68;75.91;98998.50;4929416;29;20023;-94
2024/03/14 06:15:12;;;;;;;6.78;4.50;;;;;;;10.62;76.13;99002.31;4932094;29;20090;-95
2024/03/14 06:17:38;;;;;;;5.30;4.22;;;;;;;10.65;75.60;98996.38;4920940;29;20021;-95
2024/03/14 06:20:09;;;;;;;7.90;4.50;;;;;;;10.74;75.15;99022.72;4912106;29;20086;-94
2024/03/14 06:22:39;;;;;;;6.15;4.55;;;;;;;10.72;76.33;99025.69;4910600;29;20040;-93
2024/03/14 06:25:10;;;;;;;8.95;5.32;;;;;;;10.95;76.08;99031.50;4910910;29;20035;-92
2024/03/14 06:27:41;;;;;;;10.75;6.25;;;;;;;10.97;76.53;99013.94;4910070;29;20477;-95
2024/03/14 06:30:10;;;;;;;8.45;5.32;;;;;;;11.05;75.86;99016.06;4939787;29;20035;-92
2024/03/14 06:32:50;;;;;;;8.75;5.38;;;;;;;11.31;75.53;99038.25;4944916;29;20398;-91
2024/03/14 06:35:17;;;;;;;7.55;5.60;;;;;;;11.31;74.11;99037.44;4914251;29;20038;-92
2024/03/14 06:37:45;;;;;;;6.72;4.75;;;;;;;11.30;73.20;99022.34;4927510;29;20027;-93
2024/03/14 06:40:14;;;;;;;9.45;6.00;;;;;;;11.33;73.34;99037.97;4915955;29;20027;-90
2024/03/14 06:42:40;;;;;;;8.90;5.90;;;;;;;11.48;73.19;99043.22;4942148;29;20067;-92
2024/03/14 06:45:07;;;;;;;9.15;6.63;;;;;;;11.29;73.17;99018.84;4918072;29;20047;-92
2024/03/14 06:47:33;;;;;;;10.30;5.88;;;;;;;11.30;73.37;99046.59;4911423;29;20086;-92
2024/03/14 06:50:00;;;;;;;8.60;5.20;;;;;;;11.24;73.06;99062.00;4906655;29;20035;-90
2024/03/14 06:52:26;;;;;;;11.10;5.68;;;;;;;11.11;74.02;99039.19;4935493;29;20032;-91
2024/03/14 06:54:55;;;;;;;6.28;3.97;;;;;;;10.94;73.23;99043.34;4911446;29;20062;-94
2024/03/14 06:57:21;;;;;;;8.70;3.65;;;;;;;10.77;74.43;99043.69;4911383;29;20093;-95
2024/03/14 06:59:54;;;;;;;2.97;1.88;;;;;;;10.85;70.22;99075.44;4896592;29;20027;-95
2024/03/14 07:02:28;;;;;;;5.82;3.22;;;;;;;10.79;71.31;99055.84;4930754;29;20011;-96
2024/03/14 07:07:29;;;;;;;4.60;2.65;;;;;;;10.72;72.17;99074.16;5386662;23;20056;-96
2024/03/14 07:12:46;;;;;;;4.88;3.38;;;;;;;10.64;72.18;99050.50;5503501;23;20060;-96
2024/03/14 07:15:24;;;;;;;3.78;2.67;;;;;;;10.81;70.80;99077.06;4888032;29;20048;-95
2024/03/14 07:18:31;;;;;;;;;;;;;;;;;;;;;
2024/03/14 07:21:12;;;;;;;9.90;6.10;;;;;;;10.57;73.60;99050.81;4916203;29;20065;-96
2024/03/14 07:23:38;;;;;;;6.32;3.50;;;;;;;10.63;73.01;99060.47;4900650;29;20069;-95
2024/03/14 07:26:05;;;;;;;5.45;3.90;;;;;;;10.79;72.66;99061.22;4891662;29;20131;-92
2024/03/14 07:28:58;;;;;;;10.88;8.85;;;;;;;11.06;73.78;99094.97;4889875;29;20572;-94
2024/03/14 07:31:39;;;;;;;16.55;10.05;;;;;;;11.05;73.09;99079.91;4903964;29;20087;-90
2024/03/14 07:37:23;;;;;;;6.90;3.95;;;;;;;10.95;70.83;99077.28;4850257;29;20051;-90
2024/03/14 07:39:50;;;;;;;4.38;3.15;;;;;;;10.86;71.10;99077.06;4864592;29;20066;-91
2024/03/14 07:42:18;;;;;;;5.63;3.30;;;;;;;10.84;70.65;99087.31;4866570;29;20029;-90
2024/03/14 07:44:52;;;;;;;4.82;3.80;;;;;;;10.80;71.96;99084.34;4872544;29;20503;-92
2024/03/14 07:47:26;;;;;;;4.90;3.20;;;;;;;10.83;71.40;99102.66;4885813;29;20041;-91
2024/03/14 07:49:53;;;;;;;6.50;3.83;;;;;;;10.89;72.33;99101.56;4880681;29;20639;-90
2024/03/14 07:52:22;;;;;;;8.20;6.15;;;;;;;11.01;71.93;99093.13;4893505;29;20052;-93
2024/03/14 07:54:56;;;;;;;7.15;5.57;;;;;;;11.17;71.27;99093.84;4860659;29;20152;-89
2024/03/14 07:57:27;;;;;;;5.75;3.30;;;;;;;11.34;70.48;99120.44;4888411;29;20077;-89
2024/03/14 08:00:02;;;;;;;5.45;3.25;;;;;;;11.40;69.97;99132.00;4869457;29;20488;-96
2024/03/14 08:02:33;;;;;;;4.60;3.35;;;;;;;11.14;68.25;99078.22;4885153;29;20041;-95
2024/03/14 08:05:02;;;;;;;5.47;3.40;;;;;;;11.21;69.57;99105.69;4891568;29;20048;-96
2024/03/14 08:07:32;;;;;;;5.13;3.08;;;;;;;11.15;68.97;99106.81;4913094;29;20024;-94
2024/03/14 08:09:58;;;;;;;5.00;3.10;;;;;;;11.23;69.55;99116.19;4913838;29;20031;-95
2024/03/14 08:12:32;;;;;;;5.03;3.03;;;;;;;11.20;69.35;99114.03;4927453;29;20055;-93
2024/03/14 08:15:11;;;;;;;3.75;2.50;;;;;;;11.21;67.78;99127.25;4899924;29;20409;-94
2024/03/14 08:17:48;;;;;;;4.22;2.80;;;;;;;10.92;69.46;99109.06;4915675;29;20034;-92
2024/03/14 08:20:17;;;;;;;99.90;63.97;;;;;;;10.79;70.78;99100.78;4903084;29;20019;-95
2024/03/14 08:23:32;;;;;;;4.65;3.47;;;;;;;11.08;69.16;99144.84;4912466;29;20031;-93
2024/03/14 08:26:00;;;;;;;4.75;2.63;;;;;;;11.08;69.38;99144.84;4912655;29;20032;-93
2024/03/14 08:28:26;;;;;;;3.58;2.67;;;;;;;11.09;69.57;99135.66;4893219;29;20496;-94
2024/03/14 08:31:15;;;;;;;4.05;2.90;;;;;;;10.94;69.83;99130.34;4897058;29;20055;-90
2024/03/14 08:34:18;;;;;;;;;;;;;;;;;;;;;
2024/03/14 08:36:53;;;;;;;3.65;2.40;;;;;;;11.16;68.79;99129.16;4930466;29;20130;-92
2024/03/14 08:39:29;;;;;;;4.70;3.13;;;;;;;11.17;70.17;99118.09;4912571;29;20028;-96
2024/03/14 08:41:58;;;;;;;7.07;3.97;;;;;;;11.49;71.68;99146.47;4924779;29;20023;-90
2024/03/14 08:44:27;;;;;;;5.65;3.70;;;;;;;11.68;69.91;99157.41;4910475;29;20035;-92
2024/03/14 08:51:02;;;;;;;6.57;3.50;;;;;;;11.96;68.96;99168.56;4874273;29;20032;-94
2024/03/14 08:56:52;;;;;;;;;;;;;;;;;;;;;
2024/03/14 08:59:42;;;;;;;3.15;1.95;;;;;;;11.68;68.69;99143.91;4912321;29;20097;-95
2024/03/14 09:02:15;;;;;;;7.45;5.63;;;;;;;11.63;67.31;99127.78;4892368;29;20030;-92
2024/03/14 09:05:41;;;;;;;;;;;;;;;;;;;;;
2024/03/14 09:08:18;;;;;;;;;;;;;;;11.86;66.30;99166.72;4916460;29;20032;-95
2024/03/14 09:14:49;;;;;;;2.00;1.33;;;;;;;11.42;68.03;99149.50;4922271;29;20051;-95
2024/03/14 09:17:50;;;;;;;2.50;1.60;;;;;;;11.42;65.77;99144.09;4913362;29;20092;-94
2024/03/14 09:20:30;;;;;;;2.30;1.50;;;;;;;11.33;65.81;99135.81;4925216;29;20044;-95
2024/03/14 09:23:18;;;;;;;;;;;;;;;;;;;;;
2024/03/14 09:25:44;;;;;;;2.40;1.70;;;;;;;11.30;66.96;99166.00;4853038;29;20127;-93
2024/03/14 09:28:13;;;;;;;2.00;1.30;;;;;;;11.13;67.28;99152.88;4856729;29;20048;-91
2024/03/14 09:30:42;;;;;;;2.15;1.40;;;;;;;11.03;66.52;99149.44;4909165;29;20047;-92
2024/03/14 09:33:08;;;;;;;2.35;1.30;;;;;;;11.20;66.48;99167.94;4943361;29;20083;-96
2024/03/14 09:35:37;;;;;;;2.22;1.10;;;;;;;11.20;66.40;99162.56;4930158;29;20043;-96
2024/03/14 09:38:11;;;;;;;3.17;1.20;;;;;;;11.20;67.30;99178.72;4931724;29;20122;-92
2024/03/14 09:40:43;;;;;;;1.88;1.40;;;;;;;11.26;67.14;99166.84;4929299;29;20115;-91
2024/03/14 09:45:59;;;;;;;0.90;0.85;;;;;;;11.13;66.14;99190.59;4931751;29;20048;-94
2024/03/14 09:49:41;;;;;;;1.38;1.02;;;;;;;10.93;65.90;99161.06;4928487;29;20482;-94
2024/03/14 09:52:21;;;;;;;3.15;1.98;;;;;;;10.83;65.85;99177.25;4853671;29;20030;-94
2024/03/14 09:54:48;;;;;;;5.05;3.05;;;;;;;10.80;66.84;99173.22;4914299;29;20170;-93
2024/03/14 10:03:57;;;;;;;2.22;1.55;;;;;;;10.52;67.13;99190.78;4910408;23;20120;-92
2024/03/14 10:06:26;;;;;;;2.65;1.60;;;;;;;10.45;69.51;99188.41;4909928;29;20036;-93
2024/03/14 10:08:51;;;;;;;1.67;1.00;;;;;;;10.44;68.95;99173.34;4894805;29;20039;-88
2024/03/14 10:11:18;;;;;;;1.13;0.82;;;;;;;10.39;66.54;99192.16;4906389;29;20032;-91
2024/03/14 10:13:46;;;;;;;2.63;1.40;;;;;;;10.50;67.33;99203.75;4905380;29;20581;-88
2024/03/14 10:16:14;;;;;;;2.10;1.58;;;;;;;10.49;66.59;99191.34;4874773;29;20023;-89
2024/03/14 10:18:40;;;;;;;3.45;2.53;;;;;;;10.72;67.12;99216.88;4905452;29;20020;-87
2024/03/14 10:21:16;;;;;;;1.73;1.27;;;;;;;10.42;67.54;99207.78;4921925;29;20494;-86
2024/03/14 10:23:58;;;;;;;1.83;1.50;;;;;;;10.70;67.04;99192.91;4924603;29;20024;-88
2024/03/14 10:26:37;;;;;;;4.82;1.17;;;;;;;10.97;66.05;99217.88;4936990;29;20032;-89
2024/03/14 10:29:14;;;;;;;3.70;2.25;;;;;;;10.70;66.50;99192.91;4905327;29;20118;-89
2024/03/14 10:31:43;;;;;;;1.60;1.33;;;;;;;10.40;66.14;99193.81;4893057;29;20023;-93
2024/03/14 10:34:15;;;;;;;3.38;2.20;;;;;;;10.46;66.86;99194.59;4895796;29;20027;-96
2024/03/14 10:37:48;;;;;;;3.50;1.90;;;;;;;10.65;67.12;99219.06;4895977;29;20023;-96
2024/03/14 10:40:20;;;;;;;7.75;4.35;;;;;;;10.48;67.13;99214.78;4887557;29;20440;-92
2024/03/14 10:42:55;;;;;;;18.83;9.38;;;;;;;10.34;67.43;99202.16;4855267;29;20263;-92
2024/03/14 10:45:24;;;;;;;5.90;2.60;;;;;;;10.31;67.84;99225.00;4874583;29;20039;-96
2024/03/14 10:47:53;;;;;;;5.22;2.42;;;;;;;10.38;68.65;99232.84;4859225;29;20032;-95
2024/03/14 10:50:24;;;;;;;2.63;1.52;;;;;;;10.06;69.61;99205.06;4858539;29;20044;-92
2024/03/14 10:53:00;;;;;;;3.75;2.42;;;;;;;10.18;70.64;99231.72;4860347;29;20167;-94
2024/03/14 10:55:30;;;;;;;1.38;1.10;;;;;;;10.06;70.79;99228.47;4874977;29;20029;-94
2024/03/14 10:58:01;;;;;;;1.85;1.17;;;;;;;10.16;71.56;99233.88;4872264;29;20032;-93
2024/03/14 11:00:56;;;;;;;5.93;2.88;;;;;;;10.13;71.40;99223.66;4856891;29;20048;-94
2024/03/14 11:03:24;;;;;;;2.45;1.70;;;;;;;9.93;72.25;99227.13;4875875;29;20045;-94
2024/03/14 11:05:58;;;;;;;2.65;2.10;;;;;;;9.96;71.98;99225.78;4875529;29;20077;-93
2024/03/14 11:08:29;;;;;;;1.80;1.30;;;;;;;9.91;71.77;99219.31;4856651;29;20028;-95
2024/03/14 11:11:07;;;;;;;;;;;;;;;;;;;;;
2024/03/14 11:13:38;;;;;;;1.88;1.50;;;;;;;9.44;71.46;99219.50;4916551;29;20456;-96
2024/03/14 11:16:16;;;;;;;6.60;4.47;;;;;;;9.63;72.69;99220.66;4904945;29;20135;-93
2024/03/14 11:19:13;;;;;;;13.55;2.90;;;;;;;9.76;72.62;99221.22;4923044;29;20031;-95
2024/03/14 11:21:41;;;;;;;1.92;1.20;;;;;;;9.84;71.30;99232.25;4906285;29;20044;-95
2024/03/14 11:24:09;;;;;;;6.43;3.30;;;;;;;10.09;70.42;99230.66;4935881;29;20020;-95
2024/03/14 11:30:12;;;;;;;3.80;2.00;;;;;;;9.74;70.85;99226.03;4924804;29;20086;-94
2024/03/14 11:33:06;;;;;;;3.63;1.98;;;;;;;9.55;72.07;99245.34;4900562;29;20396;-94
2024/03/14 11:35:43;;;;;;;2.63;1.70;;;;;;;9.62;73.17;99255.84;4903841;29;20031;-94
2024/03/14 11:38:21;;;;;;;3.80;2.35;;;;;;;9.78;72.43;99262.09;4911975;29;20024;-94
2024/03/14 11:40:47;;;;;;;3.75;2.00;;;;;;;9.77;72.61;99247.81;4942746;29;20035;-94
2024/03/14 11:43:28;;;;;;;3.28;2.00;;;;;;;10.00;70.55;99259.97;4894502;29;20023;-94
2024/03/14 11:53:08;;;;;;;1.80;1.38;;;;;;;9.69;72.53;99251.84;4867028;29;20064;-94
2024/03/14 11:55:41;;;;;;;40.08;21.13;;;;;;;9.72;72.87;99255.88;4838975;29;20029;-94
2024/03/14 11:58:26;;;;;;;5.13;2.88;;;;;;;9.65;72.22;99272.28;4854360;29;20017;-96
2024/03/14 12:01:31;;;;;;;2.47;1.70;;;;;;;9.59;71.31;99251.81;4911617;29;20052;-94
2024/03/14 12:04:36;;;;;;;2.22;1.52;;;;;;;9.67;71.61;99277.34;4892503;29;20049;-95
2024/03/14 12:07:15;;;;;;;1.70;1.35;;;;;;;9.69;72.25;99292.19;4866749;29;20071;-96
2024/03/14 12:09:48;;;;;;;2.00;1.35;;;;;;;9.59;72.76;99267.94;4875846;29;20035;-96
2024/03/14 12:12:30;;;;;;;2.90;1.92;;;;;;;9.51;71.83;99263.88;4894841;29;20123;-94
2024/03/14 12:15:04;;;;;;;5.00;2.33;;;;;;;9.78;71.50;99272.84;5272808;23;20304;-96
2024/03/14 12:17:30;;;;;;;3.55;1.65;;;;;;;10.06;72.52;99301.91;4903344;29;20036;-96
2024/03/14 12:20:01;;;;;;;8.10;3.97;;;;;;;9.73;69.44;99281.69;4930681;29;20019;-94
2024/03/14 12:22:26;;;;;;;3.75;2.15;;;;;;;9.69;69.08;99272.53;4938369;29;20027;-94
2024/03/14 12:25:01;;;;;;;3.97;2.15;;;;;;;9.97;71.16;99287.38;4902029;29;20040;-95
2024/03/14 12:30:05;;;;;;;3.47;1.98;;;;;;;9.85;70.32;99278.75;5488850;23;20560;-96
2024/03/14 12:35:38;;;;;;;;;;;;;;;;;;;;;
2024/03/14 12:38:23;;;;;;;;;;;;;;;;;;;;;
2024/03/14 12:41:55;;;;;;;4.13;2.53;;;;;;;9.49;70.99;99282.16;4908150;29;20048;-96
2024/03/14 12:44:46;;;;;;;2.25;1.50;;;;;;;9.50;70.04;99299.91;4882737;29;20048;-96
2024/03/14 12:50:54;;;;;;;2.70;1.70;;;;;;;9.24;70.93;99295.50;4875227;29;20082;-95
2024/03/14 12:53:35;;;;;;;;;;;;;;;;;;;;;
2024/03/14 12:56:01;;;;;;;9.98;3.45;;;;;;;9.26;69.88;99298.72;4880768;29;20559;-96
2024/03/14 12:58:32;;;;;;;3.50;2.40;;;;;;;9.40;71.64;99331.28;4878831;29;20064;-95